HEFEI/LUOGANG current weather conditions

sailwx.info

Wind from 280 at 11 knots

Air temperature 1.0° C
Visibility: greater than 2.1 NM
Dewpoint -1.0° C
Present weather: Mist.

Last reported at 2017-Feb-22 06:00 UTC.
Time now 2017-Feb-22 08:28 UTC

Location: N 31°47' E 117°18'.
View on Google Maps.

See reports from other nearby stations

  
Tides and Currents Weather Stations Pressure Air Temp Water Temp Dewpoint Dewpoint Depression Visibility Wind Speed Wind Dir Waves Ship Positions
date/time (UTC)wind fromknots sea level pressurealtimeterstation pressurevisibilityair tempwater tempwave heightnotes
2017-Feb-22 07:00 290 9 1.9 2.0 Mist.
2017-Feb-22 06:00 280 11 2.1 1.0 Mist.
2017-Feb-22 05:00 290 9 1.9 1.0 Mist.
2017-Feb-22 04:00 290 9 1.8 1.0 Ice pellets. Mist.
2017-Feb-22 03:00 300 11 1.6 1.0 Light rain. Mist.
2017-Feb-22 02:00 300 11 1.5-0.0 Mist.
2017-Feb-22 01:00 290 11 1.3-0.0 Mist.
2017-Feb-22 00:00 310 9 1.3-0.0 Mist.
2017-Feb-21 23:00 300 9 1.1-0.0 Mist.
2017-Feb-21 22:00 310 11 1.3-0.0 Mist.
2017-Feb-21 21:00 310 13 1.6-0.0 Mist.
2017-Feb-21 20:00 310 11 1.3-0.0 Mist.
2017-Feb-21 19:00 300 13 1.5-0.0 Light rain. Mist.
2017-Feb-21 18:00 310 13 1.6 1.0 Light rain. Mist.
2017-Feb-21 17:00 320 11 2.1 1.0 Light rain. Mist.
2017-Feb-21 16:00 310 15 2.2 2.0 Light rain. Mist.
2017-Feb-21 15:00 320 13 2.2 3.0 Light rain. Mist.
2017-Feb-21 14:00 320 9 2.2 3.0 Light rain. Mist.
2017-Feb-21 13:00 340 7 1.3 4.0 Light rain. Mist.
2017-Feb-21 12:00 340 7 1.0 4.0 Light rain. Mist.
2017-Feb-21 11:00 330 9 1.0 4.0 Light rain. Mist.
2017-Feb-21 10:00 360 9 1.3 4.0 Rain showers. Mist.
2017-Feb-21 09:00 360 7 2.4 5.0 Light rain. Mist.
2017-Feb-21 08:00 340 5 3.2 6.0 Light rain.
2017-Feb-21 07:00 080 3 5.4 6.0 Light rain.
2017-Feb-21 06:00 100 9 5.4 6.0 Light rain.
2017-Feb-21 05:00 100 15 5.4 6.0
2017-Feb-21 04:00 100 15 5.4 5.0
2017-Feb-21 03:00 100 15 5.4 5.0
2017-Feb-21 02:00 100 15 5.4 4.0
2017-Feb-21 01:00 100 15 5.4 4.0
2017-Feb-21 00:00 100 15 5.4 3.0
2017-Feb-20 23:00 090 15 gusting 25 5.4 3.0
2017-Feb-20 22:00 090 15 5.4 2.0
2017-Feb-20 21:00 090 15 5.4 2.0
2017-Feb-20 20:00 090 15 5.4 2.0
2017-Feb-20 19:00 090 15 5.4 2.0
2017-Feb-20 18:00 080 15 5.4 3.0
2017-Feb-20 17:00 080 13 5.4 3.0
2017-Feb-20 16:00 070 11 5.4 4.0
2017-Feb-20 15:00 080 13 5.4 4.0
2017-Feb-20 14:00 070 9 5.4 5.0
2017-Feb-20 13:00 090 11 5.4 5.0
2017-Feb-20 12:00 080 11 5.4 5.0
2017-Feb-20 11:00 070 11 5.4 5.0
2017-Feb-20 10:00 070 11 5.4 5.0
2017-Feb-20 09:00 070 13 5.4 5.0
2017-Feb-20 08:00 050 13 5.4 6.0